Item Display Status Serial CT Sensor

Mooring Depth: 1 m

 

Deployed Sensor

  • Serial Number: 2460
  • NDBC Property Number: 20982
  • Start Date: 6/20/2019 (21:10:00 Z)
  • End Date: Currently Active
Water Temperature [°C]     6 entries per hour
Showing data from 11/12/2019 (07:00:00 Z) to 11/11/2019 (00:00:01 Z)
Previous Next [ Day | 3-Days | 7-Days ]
First Last
Prev [ Day | 3-Days | 7-Days ] Next
First Last

Start Time:     :
End Time:     :     
Time (in GMT) :00 :50 :40 :30 :20 :10
Previous Next [ Day | 3-Days | 7-Days ]
First Last
Prev [ Day | 3-Days | 7-Days ] Next
First Last


123 => good data
MM => data is determined as missing
-- => data not received/configured
Back to Top Back to Top
11/12/2019 07:00 to 6:10 24.676 24.687 24.684 24.686 24.686 24.685
11/12/2019 06:00 to 5:10 24.687 24.695 24.694 24.694 24.701 24.701
11/12/2019 05:00 to 4:10 24.694 24.704 24.702 24.703 24.704 24.699
11/12/2019 04:00 to 3:10 24.700 24.695 24.690 24.692 24.701 24.700
11/12/2019 03:00 to 2:10 24.699 24.711 24.713 24.707 24.714 24.718
11/12/2019 02:00 to 1:10 24.715 24.710 24.723 24.723 24.727 24.723
11/12/2019 01:00 to 0:10 24.728 24.728 24.724 24.721 24.722 --
11/12/2019 00:00 to 23:10 24.732 24.727 24.734 24.736 24.740 24.753
11/11/2019 23:00 to 22:10 24.753 24.758 24.764 24.765 24.766 24.758
11/11/2019 22:00 to 21:10 24.773 24.772 24.781 24.773 24.779 24.772
11/11/2019 21:00 to 20:10 24.770 24.777 24.780 24.780 24.789 24.790
11/11/2019 20:00 to 19:10 24.792 24.783 24.792 24.800 24.782 24.785
11/11/2019 19:00 to 18:10 24.771 24.761 24.775 24.753 24.765 24.763
11/11/2019 18:00 to 17:10 24.749 24.745 24.733 24.731 24.730 24.705
11/11/2019 17:00 to 16:10 24.696 24.696 24.699 24.694 24.700 24.691
11/11/2019 16:00 to 15:10 24.692 24.687 24.688 24.683 24.682 24.680
11/11/2019 15:00 to 14:10 24.676 24.673 24.673 24.675 24.670 24.668
11/11/2019 14:00 to 13:10 24.673 24.677 24.678 24.677 24.675 24.659
11/11/2019 13:00 to 12:10 24.677 24.680 24.684 24.674 24.677 24.671
11/11/2019 12:00 to 11:10 24.668 24.675 24.679 24.674 24.670 24.677
11/11/2019 11:00 to 10:10 24.685 24.682 24.674 24.690 24.675 24.689
11/11/2019 10:00 to 9:10 24.693 24.689 24.697 24.695 24.699 24.692
11/11/2019 09:00 to 8:10 24.697 24.700 24.697 24.700 24.703 24.708
11/11/2019 08:00 to 7:10 24.706 24.715 24.711 24.712 24.711 24.715
11/11/2019 07:00 to 6:10 24.720 24.716 24.724 24.720 24.723 24.731
11/11/2019 06:00 to 5:10 24.719 24.728 24.733 24.730 24.727 24.725
11/11/2019 05:00 to 4:10 24.738 24.732 24.738 24.739 24.747 24.746
11/11/2019 04:00 to 3:10 24.742 24.749 24.750 24.758 24.751 24.745
11/11/2019 03:00 to 2:10 24.746 24.749 24.744 24.741 24.736 24.747
11/11/2019 02:00 to 1:10 24.748 24.755 24.760 -- 24.758 24.747
11/11/2019 01:00 to 0:10 24.756 24.746 24.751 24.759 24.761 24.754

 

 

 

Conductivity [S/m]     6 entries per hour
Showing data from 11/12/2019 (07:00:00 Z) to 11/11/2019 (00:00:01 Z)
Previous Next [ Day | 3-Days | 7-Days ]
First Last
Prev [ Day | 3-Days | 7-Days ] Next
First Last

Start Time:     :
End Time:     :     
Time (in GMT) :00 :50 :40 :30 :20 :10
Previous Next [ Day | 3-Days | 7-Days ]
First Last
Prev [ Day | 3-Days | 7-Days ] Next
First Last


123 => good data
MM => data is determined as missing
-- => data not received/configured
Back to Top Back to Top
11/12/2019 07:00 to 6:10 5.08663 5.08776 5.08738 5.08759 5.08740 5.08758
11/12/2019 06:00 to 5:10 5.08752 5.08823 5.08850 5.08842 5.08905 5.08895
11/12/2019 05:00 to 4:10 5.08814 5.08911 5.08924 5.08906 5.08929 5.08858
11/12/2019 04:00 to 3:10 5.08888 5.08852 5.08799 5.08808 5.08902 5.08911
11/12/2019 03:00 to 2:10 5.08889 5.08996 5.09029 5.08989 5.09040 5.09087
11/12/2019 02:00 to 1:10 5.09068 5.09049 5.09125 5.09152 5.09162 5.09125
11/12/2019 01:00 to 0:10 5.09168 5.09161 5.09151 5.09107 5.09119 5.09204
11/12/2019 00:00 to 23:10 5.09221 5.09169 5.09218 5.09261 5.09322 5.09419
11/11/2019 23:00 to 22:10 5.09427 5.09439 5.09523 5.09541 5.09551 5.09466
11/11/2019 22:00 to 21:10 5.09610 5.09597 5.09697 5.09592 5.09662 5.09587
11/11/2019 21:00 to 20:10 5.09580 5.09644 5.09675 5.09672 5.09760 5.09775
11/11/2019 20:00 to 19:10 5.09790 5.09690 5.09805 5.09876 5.09697 5.09736
11/11/2019 19:00 to 18:10 5.09577 5.09488 5.09604 5.09361 5.09537 5.09467
11/11/2019 18:00 to 17:10 5.09345 5.09273 5.09155 5.09145 5.09118 5.08868
11/11/2019 17:00 to 16:10 5.08786 5.08775 5.08804 5.08755 5.08790 5.08724
11/11/2019 16:00 to 15:10 5.08721 5.08677 5.08681 5.08623 5.08611 5.08584
11/11/2019 15:00 to 14:10 5.08560 5.08515 5.08521 5.08540 5.08495 5.08494
11/11/2019 14:00 to 13:10 5.08530 5.08552 5.08557 5.08551 5.08532 5.08419
11/11/2019 13:00 to 12:10 5.08524 5.08577 5.08618 5.08546 5.08535 5.08511
11/11/2019 12:00 to 11:10 5.08483 5.08528 5.08572 5.08526 5.08470 5.08557
11/11/2019 11:00 to 10:10 5.08631 5.08565 5.08518 5.08678 5.08549 5.08630
11/11/2019 10:00 to 9:10 5.08695 5.08668 5.08672 5.08696 5.08732 5.08669
11/11/2019 09:00 to 8:10 5.08703 5.08738 5.08714 5.08738 5.08757 5.08796
11/11/2019 08:00 to 7:10 5.08801 5.08841 5.08829 5.08825 5.08808 5.08846
11/11/2019 07:00 to 6:10 5.08897 5.08855 5.08918 5.08894 5.08907 5.08984
11/11/2019 06:00 to 5:10 5.08925 5.08948 5.09031 5.08973 5.08966 5.08923
11/11/2019 05:00 to 4:10 5.09017 5.08999 5.09040 5.09028 5.09114 5.09129
11/11/2019 04:00 to 3:10 5.09097 5.09158 5.09171 5.09213 5.09192 5.09137
11/11/2019 03:00 to 2:10 5.09158 5.09162 5.09118 5.09072 5.09074 5.09146
11/11/2019 02:00 to 1:10 5.09169 5.09215 5.09263 5.09225 5.09264 5.09186
11/11/2019 01:00 to 0:10 5.09232 5.09192 5.09232 5.09272 5.09301 5.09262

 

 

 

Salinity [psu]     6 entries per hour
Showing data from 11/12/2019 (07:00:00 Z) to 11/11/2019 (00:00:01 Z)
Previous Next [ Day | 3-Days | 7-Days ]
First Last
Prev [ Day | 3-Days | 7-Days ] Next
First Last

Start Time:     :
End Time:     :     
Time (in GMT) :00 :50 :40 :30 :20 :10
Previous Next [ Day | 3-Days | 7-Days ]
First Last
Prev [ Day | 3-Days | 7-Days ] Next
First Last


123 => good data
MM => data is determined as missing
-- => data not received/configured
Back to Top Back to Top
11/12/2019 07:00 to 6:10 33.61 33.61 33.61 33.61 33.61 33.61
11/12/2019 06:00 to 5:10 33.61 33.61 33.61 33.61 33.61 33.61
11/12/2019 05:00 to 4:10 33.61 33.61 33.61 33.61 33.61 33.61
11/12/2019 04:00 to 3:10 33.61 33.61 33.61 33.61 33.61 33.61
11/12/2019 03:00 to 2:10 33.61 33.61 33.61 33.61 33.61 33.61
11/12/2019 02:00 to 1:10 33.61 33.61 33.61 33.61 33.61 33.61
11/12/2019 01:00 to 0:10 33.61 33.61 33.61 33.61 33.61 --
11/12/2019 00:00 to 23:10 33.61 33.61 33.61 33.61 33.61 33.61
11/11/2019 23:00 to 22:10 33.61 33.61 33.61 33.61 33.61 33.61
11/11/2019 22:00 to 21:10 33.61 33.61 33.61 33.61 33.61 33.61
11/11/2019 21:00 to 20:10 33.61 33.61 33.61 33.61 33.61 33.61
11/11/2019 20:00 to 19:10 33.61 33.61 33.61 33.61 33.61 33.61
11/11/2019 19:00 to 18:10 33.61 33.61 33.61 33.60 33.61 33.61
11/11/2019 18:00 to 17:10 33.61 33.60 33.60 33.61 33.60 33.60
11/11/2019 17:00 to 16:10 33.60 33.60 33.60 33.60 33.60 33.60
11/11/2019 16:00 to 15:10 33.60 33.60 33.60 33.60 33.60 33.60
11/11/2019 15:00 to 14:10 33.60 33.60 33.60 33.60 33.60 33.60
11/11/2019 14:00 to 13:10 33.60 33.60 33.60 33.60 33.60 33.60
11/11/2019 13:00 to 12:10 33.60 33.60 33.60 33.60 33.60 33.60
11/11/2019 12:00 to 11:10 33.60 33.60 33.60 33.60 33.60 33.60
11/11/2019 11:00 to 10:10 33.60 33.60 33.60 33.60 33.60 33.60
11/11/2019 10:00 to 9:10 33.60 33.60 33.60 33.60 33.60 33.60
11/11/2019 09:00 to 8:10 33.60 33.60 33.60 33.60 33.60 33.60
11/11/2019 08:00 to 7:10 33.60 33.59 33.60 33.60 33.60 33.59
11/11/2019 07:00 to 6:10 33.59 33.60 33.59 33.59 33.59 33.59
11/11/2019 06:00 to 5:10 33.60 33.59 33.60 33.59 33.59 33.59
11/11/2019 05:00 to 4:10 33.59 33.59 33.59 33.59 33.59 33.59
11/11/2019 04:00 to 3:10 33.59 33.59 33.59 33.59 33.59 33.59
11/11/2019 03:00 to 2:10 33.60 33.59 33.59 33.59 33.60 33.59
11/11/2019 02:00 to 1:10 33.59 33.59 33.59 -- 33.59 33.60
11/11/2019 01:00 to 0:10 33.59 33.60 33.60 33.59 33.59 33.60